Big Rapids, Michigan
Current Conditions -  °F | °C
As of 11:14 AM on Sunday 25 Jan 2015 (Local Time) from KRQB Reporting Station
Clear Clear  
Wind Chill: -14°   Ceiling: Unl
Heat Index: -8°   Visibility: 10mi
Dew Point: -12°   Wind: 9mph
Humidity: 72%   Direction: 90°E
Pressure: 29.94"   Gusts: NA
Location:  43.7°N, 85.48°W
Report Text: KRQB 251614Z AUTO 09008KT 10SM CLR M08/M12 A2994 RMK AO2 T10811123
Loading
Personal Weather Stations






























Interactive Weather Map New forecast layout! Learn more

10-Day Weather Forecast

Advertisements
Track Severe Weather on mobile